Time;durP1;ratioP1;P1;durP2;ratioP2;P2;SDS_P1;SDS_P2;PMS_P1;PMS_P2;Temp;Humidity;BMP_temperature;BMP_pressure;BME280_temperature;BME280_humidity;BME280_pressure;Samples;Min_cycle;Max_cycle;Signal;HPM_P1;HPM_P2
2022/04/06 00:00:08;;;;;;;6.83;6.23;;;11.00;25.70;;;;;;5012835;28;20180;-69
2022/04/06 00:02:34;;;;;;;6.60;6.30;;;11.00;25.80;;;;;;5012601;28;20644;-69
2022/04/06 00:05:00;;;;;;;7.10;6.80;;;11.00;25.70;;;;;;5012664;28;20435;-69
2022/04/06 00:07:26;;;;;;;6.90;6.60;;;10.90;25.70;;;;;;5012717;28;20407;-69
2022/04/06 00:09:52;;;;;;;8.40;7.90;;;10.90;25.70;;;;;;5012721;28;20468;-70
2022/04/06 00:12:17;;;;;;;6.53;6.20;;;11.00;25.90;;;;;;5012788;28;20455;-69
2022/04/06 00:14:43;;;;;;;6.27;5.87;;;10.90;26.00;;;;;;5012586;28;20200;-69
2022/04/06 00:17:10;;;;;;;6.47;6.07;;;10.80;26.10;;;;;;5012548;28;20184;-69
2022/04/06 00:19:36;;;;;;;6.57;6.27;;;10.70;26.70;;;;;;5012543;28;20203;-69
2022/04/06 00:22:03;;;;;;;6.60;6.30;;;10.70;26.80;;;;;;5012488;28;20426;-70
2022/04/06 00:24:29;;;;;;;6.00;5.70;;;10.60;26.90;;;;;;5012378;28;20209;-69
2022/04/06 00:26:55;;;;;;;5.93;5.63;;;10.50;27.10;;;;;;5012461;28;20446;-69
2022/04/06 00:29:21;;;;;;;5.60;5.40;;;10.50;27.10;;;;;;5012803;28;20568;-69
2022/04/06 00:31:46;;;;;;;6.83;6.43;;;10.50;27.10;;;;;;5012380;28;20256;-69
2022/04/06 00:34:12;;;;;;;7.20;6.70;;;10.60;27.20;;;;;;5012309;28;20442;-69
2022/04/06 00:36:37;;;;;;;6.93;6.43;;;10.60;27.20;;;;;;5012286;28;20207;-69
2022/04/06 00:39:03;;;;;;;6.80;6.37;;;10.70;26.60;;;;;;5012219;28;20239;-70
2022/04/06 00:41:29;;;;;;;6.47;6.10;;;10.80;26.70;;;;;;5012204;28;20644;-71
2022/04/06 00:44:15;;;;;;;6.80;6.40;;;10.80;26.90;;;;;;5012125;28;20291;-72
2022/04/06 00:46:42;;;;;;;6.77;6.37;;;10.90;26.50;;;;;;5011555;28;20180;-71
2022/04/06 00:49:11;;;;;;;6.83;6.43;;;10.90;26.40;;;;;;5011954;28;20809;-71
2022/04/06 00:51:41;;;;;;;5.87;5.47;;;10.90;26.30;;;;;;5012163;28;20822;-72
2022/04/06 00:54:08;;;;;;;6.17;5.87;;;10.90;26.30;;;;;;5006002;28;20463;-71
2022/04/06 00:56:34;;;;;;;6.80;6.40;;;10.80;26.70;;;;;;4999626;28;20434;-71
2022/04/06 00:59:00;;;;;;;6.60;6.10;;;10.80;26.90;;;;;;4992430;28;20458;-71
2022/04/06 01:01:25;;;;;;;6.80;6.40;;;10.90;26.70;;;;;;5007736;28;20427;-71
2022/04/06 01:03:51;;;;;;;5.93;5.53;;;10.80;26.50;;;;;;5011946;28;20473;-71
2022/04/06 01:06:16;;;;;;;6.93;6.53;;;10.70;27.20;;;;;;5011792;28;20178;-71
2022/04/06 01:08:42;;;;;;;6.50;6.20;;;10.70;27.20;;;;;;5011685;28;20184;-71
2022/04/06 01:11:08;;;;;;;6.83;6.53;;;10.70;27.20;;;;;;5011998;28;20244;-71
2022/04/06 01:13:34;;;;;;;6.07;5.77;;;10.70;27.20;;;;;;5010680;28;20219;-71
2022/04/06 01:15:59;;;;;;;5.73;5.43;;;10.70;27.20;;;;;;5011598;28;20192;-71
2022/04/06 01:18:25;;;;;;;6.57;6.17;;;10.70;27.20;;;;;;5011648;28;20465;-72
2022/04/06 01:20:50;;;;;;;6.03;5.73;;;10.80;27.30;;;;;;5011994;28;20179;-72
2022/04/06 01:23:16;;;;;;;5.77;5.50;;;10.80;27.30;;;;;;5011390;28;20668;-72
2022/04/06 01:25:42;;;;;;;5.70;5.40;;;10.80;27.10;;;;;;5012077;28;20622;-71
2022/04/06 01:28:07;;;;;;;5.63;5.33;;;10.70;27.20;;;;;;5011957;28;20266;-71
2022/04/06 01:30:33;;;;;;;5.90;5.60;;;10.60;27.40;;;;;;5011927;28;20259;-71
2022/04/06 01:32:59;;;;;;;5.80;5.60;;;10.60;27.20;;;;;;5011648;28;20202;-71
2022/04/06 01:35:25;;;;;;;5.90;5.40;;;10.70;27.20;;;;;;5011646;28;20570;-71
2022/04/06 01:37:50;;;;;;;5.83;5.43;;;10.60;27.20;;;;;;5011557;28;20538;-71
2022/04/06 01:40:16;;;;;;;6.20;5.90;;;10.60;27.10;;;;;;5011843;28;20419;-71
2022/04/06 01:42:42;;;;;;;5.93;5.63;;;10.60;27.10;;;;;;5011563;28;20412;-72
2022/04/06 01:45:08;;;;;;;5.57;5.27;;;10.60;27.50;;;;;;5011580;28;20196;-71
2022/04/06 01:47:34;;;;;;;6.00;5.60;;;10.70;27.20;;;;;;5005670;28;20704;-71
2022/04/06 01:52:44;;;;;;;5.63;5.33;;;10.70;27.20;;;;;;4998928;28;20433;-71
2022/04/06 01:55:13;;;;;;;6.30;6.00;;;10.70;27.20;;;;;;5013790;28;20442;-71
2022/04/06 01:57:39;;;;;;;5.87;5.57;;;10.70;27.20;;;;;;5014825;28;20681;-71
2022/04/06 02:00:09;;;;;;;6.63;6.23;;;10.70;27.20;;;;;;5015077;28;20449;-71
2022/04/06 02:02:37;;;;;;;5.63;5.33;;;10.70;27.20;;;;;;5015108;28;20430;-71
2022/04/06 02:05:02;;;;;;;5.77;5.50;;;10.80;27.30;;;;;;5014988;28;20429;-71
2022/04/06 02:07:28;;;;;;;5.37;5.07;;;10.70;27.20;;;;;;5014895;28;20422;-71
2022/04/06 02:09:54;;;;;;;5.40;5.10;;;10.60;27.20;;;;;;5014962;28;20255;-71
2022/04/06 02:12:23;;;;;;;5.73;5.50;;;10.60;27.10;;;;;;5013582;28;20697;-71
2022/04/06 02:14:49;;;;;;;5.70;5.40;;;10.60;27.10;;;;;;5014956;28;20435;-72
2022/04/06 02:17:15;;;;;;;6.03;5.73;;;10.70;27.20;;;;;;5014637;28;20408;-72
2022/04/06 02:19:41;;;;;;;6.40;6.10;;;10.70;27.20;;;;;;5014707;28;20458;-72
2022/04/06 02:22:08;;;;;;;6.40;6.00;;;10.60;27.20;;;;;;5014369;28;20435;-72
2022/04/06 02:24:34;;;;;;;5.77;5.47;;;10.70;27.20;;;;;;5014341;28;20215;-71
2022/04/06 02:27:00;;;;;;;5.10;4.80;;;10.60;27.20;;;;;;5014355;28;20418;-71
2022/04/06 02:29:25;;;;;;;5.60;5.30;;;10.50;28.30;;;;;;5014699;28;20425;-72
2022/04/06 02:31:51;;;;;;;6.03;5.73;;;10.50;27.90;;;;;;5014285;28;20652;-71
2022/04/06 02:34:17;;;;;;;6.00;5.70;;;10.50;27.60;;;;;;5014598;28;20883;-71
2022/04/06 02:36:42;;;;;;;5.27;4.97;;;10.60;27.60;;;;;;5014525;28;20533;-71
2022/04/06 02:39:08;;;;;;;7.10;6.60;;;10.50;27.70;;;;;;5014508;28;20211;-71
2022/04/06 02:41:34;;;;;;;5.40;5.10;;;10.50;27.90;;;;;;5014176;28;20214;-71
2022/04/06 02:43:59;;;;;;;5.50;5.20;;;10.50;28.10;;;;;;5014364;28;20199;-72
2022/04/06 02:46:25;;;;;;;5.90;5.60;;;10.50;27.80;;;;;;5014562;28;20523;-71
2022/04/06 02:48:50;;;;;;;6.07;5.77;;;10.60;27.80;;;;;;5014180;28;20186;-71
2022/04/06 02:51:16;;;;;;;5.57;5.17;;;10.60;27.40;;;;;;5013954;28;20187;-71
2022/04/06 02:53:41;;;;;;;6.50;6.17;;;10.60;27.50;;;;;;5014169;28;20211;-71
2022/04/06 02:56:07;;;;;;;7.40;6.90;;;10.60;27.40;;;;;;5014009;28;20194;-71
2022/04/06 02:58:33;;;;;;;7.13;6.73;;;10.60;27.50;;;;;;5014090;28;20740;-71
2022/04/06 03:00:58;;;;;;;6.00;5.67;;;10.60;27.70;;;;;;5014189;28;20187;-71
2022/04/06 03:03:25;;;;;;;6.50;6.00;;;10.60;27.50;;;;;;5013889;28;20642;-71
2022/04/06 03:05:50;;;;;;;6.43;6.03;;;10.60;27.70;;;;;;5012704;28;20242;-71
2022/04/06 03:08:16;;;;;;;6.47;6.07;;;10.60;27.40;;;;;;5012108;28;20431;-71
2022/04/06 03:10:41;;;;;;;5.47;5.07;;;10.60;27.40;;;;;;5013754;28;20183;-71
2022/04/06 03:13:07;;;;;;;6.20;5.90;;;10.60;27.50;;;;;;5013726;28;20191;-71
2022/04/06 03:15:33;;;;;;;6.00;5.60;;;10.60;27.80;;;;;;5013697;28;20751;-71
2022/04/06 03:17:58;;;;;;;5.73;5.43;;;10.60;27.50;;;;;;5013313;28;20210;-71
2022/04/06 03:20:24;;;;;;;5.90;5.60;;;10.60;27.50;;;;;;5013361;28;20266;-71
2022/04/06 03:22:49;;;;;;;6.20;5.87;;;10.50;27.70;;;;;;5013548;28;20168;-71
2022/04/06 03:25:15;;;;;;;6.87;6.47;;;10.60;27.70;;;;;;5013173;28;20225;-71
2022/04/06 03:27:41;;;;;;;6.13;5.80;;;10.60;27.80;;;;;;5013200;28;20186;-71
2022/04/06 03:30:11;;;;;;;5.57;5.23;;;10.50;27.90;;;;;;5013138;28;20183;-71
2022/04/06 03:32:37;;;;;;;5.80;5.50;;;10.60;27.50;;;;;;5013683;28;20175;-71
2022/04/06 03:35:03;;;;;;;6.30;5.93;;;10.60;27.70;;;;;;5013311;28;20432;-71
2022/04/06 03:37:29;;;;;;;6.63;6.23;;;10.60;28.00;;;;;;5013138;28;20778;-72
2022/04/06 03:39:55;;;;;;;5.90;5.60;;;10.50;28.00;;;;;;5012968;28;20427;-71
2022/04/06 03:42:20;;;;;;;6.43;5.93;;;10.50;28.10;;;;;;5013253;28;20852;-71
2022/04/06 03:44:46;;;;;;;6.20;5.87;;;10.40;28.20;;;;;;5013079;28;20216;-71
2022/04/06 03:47:11;;;;;;;6.00;5.67;;;10.40;28.20;;;;;;5011620;28;20657;-71
2022/04/06 03:49:37;;;;;;;5.30;4.93;;;10.40;28.30;;;;;;5013111;28;20188;-71
2022/04/06 03:52:03;;;;;;;6.07;5.67;;;10.40;28.40;;;;;;5013128;28;20653;-71
2022/04/06 03:54:29;;;;;;;6.07;5.67;;;10.50;28.20;;;;;;5012845;28;20207;-71
2022/04/06 03:56:54;;;;;;;6.10;5.70;;;10.40;28.60;;;;;;5012853;28;20477;-71
2022/04/06 03:59:20;;;;;;;6.87;6.40;;;10.30;28.50;;;;;;5012674;28;20211;-71
2022/04/06 04:01:46;;;;;;;5.57;5.17;;;10.40;28.80;;;;;;5013093;28;20237;-71
2022/04/06 04:04:12;;;;;;;5.70;5.40;;;10.40;28.60;;;;;;5012857;28;20438;-70
2022/04/06 04:06:37;;;;;;;6.00;5.70;;;10.40;28.50;;;;;;5012747;28;20175;-72
2022/04/06 04:09:03;;;;;;;6.60;6.20;;;10.40;28.40;;;;;;5012488;28;20704;-72
2022/04/06 04:11:30;;;;;;;5.63;5.33;;;10.40;28.50;;;;;;5012803;28;20188;-71
2022/04/06 04:13:56;;;;;;;7.07;6.67;;;10.50;28.50;;;;;;5011666;28;20484;-71
2022/04/06 04:16:21;;;;;;;6.80;6.33;;;10.50;28.30;;;;;;5012083;28;20422;-71
2022/04/06 04:18:47;;;;;;;6.43;5.97;;;10.50;28.50;;;;;;5014599;28;20607;-71
2022/04/06 04:23:56;;;;;;;5.43;5.03;;;10.40;28.50;;;;;;5015551;28;20226;-71
2022/04/06 04:26:22;;;;;;;6.27;5.97;;;10.50;28.30;;;;;;5016484;28;20785;-71
2022/04/06 04:28:47;;;;;;;6.40;5.80;;;10.50;28.40;;;;;;5013839;28;20186;-71
2022/04/06 04:31:13;;;;;;;6.77;6.27;;;10.40;28.60;;;;;;5012559;28;20598;-71
2022/04/06 04:33:38;;;;;;;6.03;5.63;;;10.40;28.60;;;;;;5012419;28;20555;-72
2022/04/06 04:36:04;;;;;;;6.43;6.00;;;10.50;28.50;;;;;;5012099;28;20241;-71
2022/04/06 04:38:30;;;;;;;6.10;5.80;;;10.50;28.20;;;;;;5011173;28;20677;-71
2022/04/06 04:40:55;;;;;;;6.67;6.27;;;10.50;28.40;;;;;;5011220;28;20179;-71
2022/04/06 04:43:22;;;;;;;6.50;6.10;;;10.60;27.90;;;;;;5012605;28;20648;-71
2022/04/06 04:45:48;;;;;;;5.43;5.13;;;10.60;28.20;;;;;;5011302;28;20568;-71
2022/04/06 04:48:13;;;;;;;6.23;5.93;;;10.60;27.90;;;;;;5012196;28;20434;-72
2022/04/06 04:50:39;;;;;;;7.17;6.67;;;10.50;28.40;;;;;;5012341;28;20415;-71
2022/04/06 04:53:05;;;;;;;6.50;6.10;;;10.50;28.50;;;;;;5012253;28;20195;-72
2022/04/06 04:55:34;;;;;;;7.03;6.53;;;10.50;28.40;;;;;;5012181;28;20562;-72
2022/04/06 04:57:59;;;;;;;6.50;6.10;;;10.50;28.20;;;;;;5011487;28;20930;-72
2022/04/06 05:00:25;;;;;;;7.63;7.10;;;10.50;28.40;;;;;;5012404;28;20503;-72
2022/04/06 05:02:51;;;;;;;7.77;7.17;;;10.50;28.30;;;;;;5012131;28;20255;-72
2022/04/06 05:05:16;;;;;;;6.60;6.10;;;10.60;28.40;;;;;;5012133;28;20906;-72
2022/04/06 05:07:42;;;;;;;6.43;5.93;;;10.60;28.50;;;;;;5011895;28;20176;-72
2022/04/06 05:10:09;;;;;;;7.87;7.17;;;10.60;28.50;;;;;;5011956;28;20266;-72
2022/04/06 05:12:34;;;;;;;6.87;6.37;;;10.60;28.30;;;;;;5012101;28;20214;-72
2022/04/06 05:15:01;;;;;;;8.53;7.93;;;10.60;28.20;;;;;;5011739;28;20540;-72
2022/04/06 05:17:27;;;;;;;7.70;7.00;;;10.70;27.80;;;;;;5011485;28;20263;-71
2022/04/06 05:19:54;;;;;;;8.23;7.63;;;10.70;28.00;;;;;;5011824;28;20427;-72
2022/04/06 05:22:20;;;;;;;7.37;6.83;;;10.70;27.80;;;;;;5011778;28;20441;-72
2022/04/06 05:24:46;;;;;;;6.40;6.00;;;10.80;27.60;;;;;;5012680;28;20491;-72
2022/04/06 05:27:11;;;;;;;8.40;7.90;;;10.80;27.70;;;;;;5011221;28;20426;-72
2022/04/06 05:29:37;;;;;;;7.00;6.47;;;10.80;27.30;;;;;;5013405;28;20485;-72
2022/04/06 05:32:03;;;;;;;8.00;7.50;;;10.90;27.40;;;;;;5016085;28;20179;-72
2022/04/06 05:34:29;;;;;;;9.77;7.70;;;10.90;27.40;;;;;;5015440;28;20196;-68
2022/04/06 05:36:55;;;;;;;8.53;7.17;;;10.90;27.40;;;;;;5015158;28;20474;-69
2022/04/06 05:39:21;;;;;;;7.40;6.97;;;10.90;27.40;;;;;;5015283;28;20473;-69
2022/04/06 05:41:47;;;;;;;7.77;7.07;;;10.90;27.40;;;;;;5015424;28;20423;-69
2022/04/06 05:44:13;;;;;;;7.13;6.70;;;10.90;27.40;;;;;;5015272;28;20433;-69
2022/04/06 05:46:38;;;;;;;7.40;7.00;;;11.00;27.50;;;;;;5015206;28;20768;-69
2022/04/06 05:49:04;;;;;;;7.57;7.00;;;11.00;27.40;;;;;;5015211;28;20198;-69
2022/04/06 05:51:29;;;;;;;7.17;6.77;;;11.00;27.40;;;;;;5015350;28;20197;-69
2022/04/06 05:53:55;;;;;;;9.30;7.37;;;11.00;27.20;;;;;;5014059;28;20203;-69
2022/04/06 05:56:20;;;;;;;7.03;6.57;;;11.00;27.00;;;;;;5014972;28;20626;-69
2022/04/06 05:58:46;;;;;;;6.30;6.00;;;11.00;27.00;;;;;;5014930;28;20203;-68
2022/04/06 06:01:11;;;;;;;6.53;6.03;;;11.00;26.90;;;;;;5015151;28;20270;-69
2022/04/06 06:03:37;;;;;;;6.63;6.30;;;11.00;27.00;;;;;;5015093;28;20282;-69
2022/04/06 06:06:02;;;;;;;6.73;6.43;;;11.10;26.70;;;;;;5014837;28;20552;-69
2022/04/06 06:08:28;;;;;;;6.90;6.60;;;11.10;27.20;;;;;;5014744;28;20239;-69
2022/04/06 06:10:55;;;;;;;6.77;6.33;;;11.20;26.60;;;;;;5014849;28;20242;-69
2022/04/06 06:13:21;;;;;;;5.37;5.07;;;11.20;26.30;;;;;;5014669;28;20180;-69
2022/04/06 06:15:47;;;;;;;6.50;5.87;;;11.20;26.40;;;;;;5016201;28;20427;-70
2022/04/06 06:18:13;;;;;;;6.53;6.23;;;11.20;26.20;;;;;;5015103;28;20557;-69
2022/04/06 06:20:38;;;;;;;6.70;6.20;;;11.30;26.20;;;;;;5014801;28;20177;-69
2022/04/06 06:23:04;;;;;;;6.43;6.13;;;11.30;26.10;;;;;;5014182;28;20473;-69
2022/04/06 06:25:30;;;;;;;6.70;6.20;;;11.30;26.20;;;;;;5013241;28;20564;-69
2022/04/06 06:27:56;;;;;;;6.93;6.10;;;11.40;26.40;;;;;;5014776;28;20267;-68
2022/04/06 06:30:21;;;;;;;6.50;6.20;;;11.40;26.00;;;;;;5014995;28;20538;-68
2022/04/06 06:32:47;;;;;;;6.30;6.00;;;11.50;26.10;;;;;;5014204;28;20801;-69
2022/04/06 06:35:13;;;;;;;7.50;7.00;;;11.60;25.80;;;;;;5014350;28;20697;-69
2022/04/06 06:37:49;;;;;;;6.73;6.40;;;11.70;25.60;;;;;;5013988;28;20207;-70
2022/04/06 06:40:19;;;;;;;6.67;6.37;;;11.70;25.40;;;;;;5013859;28;20179;-69
2022/04/06 06:42:45;;;;;;;7.57;6.97;;;11.70;25.20;;;;;;5014067;28;20909;-69
2022/04/06 06:45:11;;;;;;;8.10;7.50;;;11.70;24.90;;;;;;5014212;28;20850;-68
2022/04/06 06:47:40;;;;;;;7.70;7.30;;;11.80;25.00;;;;;;5013971;28;21110;-69
2022/04/06 06:50:07;;;;;;;6.13;5.83;;;11.80;24.90;;;;;;5014211;28;20425;-69
2022/04/06 06:52:34;;;;;;;7.23;6.83;;;11.90;24.60;;;;;;5013934;28;20430;-69
2022/04/06 06:55:01;;;;;;;7.47;7.07;;;11.90;24.70;;;;;;5013355;28;20455;-68
2022/04/06 06:57:27;;;;;;;7.00;6.70;;;12.00;24.60;;;;;;5007820;28;20465;-68
2022/04/06 06:59:52;;;;;;;7.43;6.93;;;12.10;24.30;;;;;;5014277;28;20474;-69
2022/04/06 07:02:18;;;;;;;8.00;7.50;;;12.10;24.00;;;;;;5014106;28;20430;-68
2022/04/06 07:04:43;;;;;;;7.80;7.43;;;12.20;24.10;;;;;;5013588;28;20191;-68
2022/04/06 07:07:09;;;;;;;9.87;9.27;;;12.40;24.00;;;;;;5013851;28;20226;-69
2022/04/06 07:09:34;;;;;;;8.17;7.77;;;12.40;23.90;;;;;;5013731;28;20590;-68
2022/04/06 07:12:00;;;;;;;7.93;7.53;;;12.50;23.50;;;;;;5014856;28;20200;-69
2022/04/06 07:14:26;;;;;;;7.97;7.43;;;12.60;22.70;;;;;;5012928;28;20752;-70
2022/04/06 07:16:53;;;;;;;7.50;7.20;;;12.70;22.00;;;;;;5013668;28;20196;-69
2022/04/06 07:19:18;;;;;;;7.93;7.63;;;12.70;22.00;;;;;;5013524;28;20468;-69
2022/04/06 07:21:44;;;;;;;8.30;7.90;;;12.70;22.20;;;;;;5014076;28;20502;-68
2022/04/06 07:24:09;;;;;;;7.43;6.93;;;12.80;22.20;;;;;;5013255;28;20213;-68
2022/04/06 07:26:35;;;;;;;7.40;6.80;;;12.90;21.60;;;;;;5013029;28;20187;-68
2022/04/06 07:29:00;;;;;;;7.50;7.20;;;12.90;21.60;;;;;;5013205;28;20200;-70
2022/04/06 07:31:26;;;;;;;8.50;8.20;;;12.90;21.70;;;;;;5013481;28;20627;-68
2022/04/06 07:33:51;;;;;;;7.30;7.00;;;13.00;21.20;;;;;;5004367;28;20212;-68
2022/04/06 07:36:17;;;;;;;8.23;7.63;;;13.10;21.10;;;;;;4993884;28;20288;-68
2022/04/06 07:38:43;;;;;;;7.97;7.57;;;13.00;21.10;;;;;;4992093;28;20193;-67
2022/04/06 07:41:08;;;;;;;8.17;7.87;;;13.10;21.40;;;;;;4993633;28;20934;-68
2022/04/06 07:43:34;;;;;;;8.10;7.70;;;13.00;20.60;;;;;;4993270;28;20188;-68
2022/04/06 07:45:59;;;;;;;7.80;7.47;;;13.00;20.80;;;;;;4993614;28;20537;-67
2022/04/06 07:48:27;;;;;;;7.50;7.20;;;13.00;20.80;;;;;;4991879;28;20201;-68
2022/04/06 07:50:56;;;;;;;7.80;7.50;;;13.00;21.00;;;;;;5001348;28;20262;-68
2022/04/06 07:53:22;;;;;;;7.63;7.33;;;13.00;20.40;;;;;;4992677;28;20439;-68
2022/04/06 07:55:49;;;;;;;7.20;6.90;;;12.90;21.30;;;;;;4995152;28;20467;-68
2022/04/06 07:58:15;;;;;;;7.80;7.50;;;12.90;21.30;;;;;;4992711;28;20463;-68
2022/04/06 08:00:41;;;;;;;7.17;6.87;;;13.00;21.40;;;;;;4991620;28;20897;-68
2022/04/06 08:03:07;;;;;;;7.67;7.37;;;12.90;21.00;;;;;;4991821;28;20424;-68
2022/04/06 08:05:33;;;;;;;8.07;7.73;;;13.20;20.80;;;;;;4993234;28;20190;-68
2022/04/06 08:07:58;;;;;;;8.80;8.50;;;13.40;20.70;;;;;;4992956;28;20421;-68
2022/04/06 08:10:24;;;;;;;7.97;7.67;;;13.50;20.70;;;;;;4993048;28;20190;-68
2022/04/06 08:12:50;;;;;;;8.53;8.13;;;13.70;20.90;;;;;;4993041;28;20173;-68
2022/04/06 08:15:16;;;;;;;9.77;9.03;;;13.70;19.80;;;;;;4993035;28;20196;-67
2022/04/06 08:17:44;;;;;;;8.30;8.00;;;13.70;19.80;;;;;;4992639;28;20839;-69
2022/04/06 08:20:14;;;;;;;8.57;8.13;;;13.50;20.30;;;;;;4993163;28;20440;-68
2022/04/06 08:22:41;;;;;;;8.90;8.57;;;13.50;20.50;;;;;;4991844;28;20921;-68
2022/04/06 08:25:07;;;;;;;8.50;8.20;;;13.60;20.80;;;;;;4989820;28;20452;-70
2022/04/06 08:27:36;;;;;;;8.70;8.30;;;13.50;20.80;;;;;;4987914;28;20504;-70
2022/04/06 08:30:05;;;;;;;8.47;8.10;;;13.50;20.70;;;;;;4988803;28;20558;-70
2022/04/06 08:32:31;;;;;;;8.50;8.17;;;13.70;20.20;;;;;;4988392;28;20502;-70
2022/04/06 08:34:57;;;;;;;9.20;8.80;;;13.70;20.30;;;;;;4987875;28;20433;-70
2022/04/06 08:37:22;;;;;;;9.50;8.80;;;13.90;20.20;;;;;;4992009;28;20440;-70
2022/04/06 08:39:48;;;;;;;7.90;7.60;;;13.90;19.80;;;;;;4992250;28;20595;-70
2022/04/06 08:42:14;;;;;;;9.43;8.93;;;14.00;20.50;;;;;;4992611;28;20177;-70
2022/04/06 08:44:40;;;;;;;8.70;8.30;;;14.00;19.50;;;;;;4992388;28;20202;-70
2022/04/06 08:47:06;;;;;;;9.17;8.77;;;14.20;18.90;;;;;;4992226;28;20460;-70
2022/04/06 08:49:34;;;;;;;9.27;8.87;;;14.40;19.10;;;;;;4992520;28;20237;-69
2022/04/06 08:52:00;;;;;;;9.97;8.97;;;14.50;18.30;;;;;;4992768;28;20975;-69
2022/04/06 08:54:26;;;;;;;10.10;9.10;;;14.50;18.40;;;;;;4992298;28;20879;-70
2022/04/06 08:56:52;;;;;;;9.53;9.13;;;14.70;18.30;;;;;;4992378;28;20499;-70
2022/04/06 08:59:18;;;;;;;9.80;9.40;;;14.90;17.80;;;;;;4992417;28;20626;-70
2022/04/06 09:01:43;;;;;;;8.97;8.67;;;15.10;17.60;;;;;;4992454;28;20223;-70
2022/04/06 09:04:09;;;;;;;10.03;9.63;;;15.20;17.00;;;;;;4994866;28;20192;-70
2022/04/06 09:06:43;;;;;;;10.23;9.70;;;15.10;17.30;;;;;;4996381;28;20191;-70
2022/04/06 09:09:09;;;;;;;9.70;9.30;;;14.90;17.40;;;;;;4995196;28;20427;-71
2022/04/06 09:11:44;;;;;;;10.27;9.87;;;15.20;17.30;;;;;;4996303;28;20412;-70
2022/04/06 09:14:11;;;;;;;10.20;9.83;;;15.40;16.40;;;;;;4996227;28;20431;-70
2022/04/06 09:16:37;;;;;;;10.80;10.20;;;15.60;16.40;;;;;;4996103;28;20419;-70
2022/04/06 09:19:12;;;;;;;10.40;10.00;;;16.00;16.40;;;;;;4996068;28;20452;-70
2022/04/06 09:21:42;;;;;;;11.17;10.77;;;16.20;16.40;;;;;;5005146;28;20266;-70
2022/04/06 09:24:19;;;;;;;11.03;10.63;;;16.40;14.80;;;;;;5012217;28;20465;-70
2022/04/06 09:26:56;;;;;;;11.17;10.77;;;16.60;14.20;;;;;;5011660;28;20844;-68
2022/04/06 09:29:22;;;;;;;11.13;10.70;;;16.90;14.40;;;;;;5013989;28;21124;-70
2022/04/06 09:31:49;;;;;;;12.13;11.17;;;16.90;14.40;;;;;;5011768;28;20460;-70
2022/04/06 09:34:15;;;;;;;10.90;10.50;;;16.80;14.20;;;;;;5000502;28;20208;-70
2022/04/06 09:36:40;;;;;;;11.53;11.13;;;16.90;14.40;;;;;;5012069;28;20856;-70
2022/04/06 09:39:07;;;;;;;11.00;10.60;;;16.90;14.40;;;;;;5006652;28;20215;-70
2022/04/06 09:41:34;;;;;;;11.93;11.43;;;17.00;14.50;;;;;;5001506;28;20264;-71
2022/04/06 09:47:38;;;;;;;11.40;10.80;;;17.10;14.60;;;;;;5014971;28;20446;-72
2022/04/06 09:50:10;;;;;;;11.10;10.70;;;17.50;13.20;;;;;;5015538;28;20856;-71
2022/04/06 09:52:39;;;;;;;11.20;10.80;;;17.50;13.50;;;;;;5013947;28;20422;-70
2022/04/06 09:55:09;;;;;;;11.00;10.60;;;17.60;13.50;;;;;;5015109;28;20418;-70
2022/04/06 09:57:45;;;;;;;12.30;11.60;;;17.60;12.90;;;;;;5014956;28;20473;-70
2022/04/06 10:00:15;;;;;;;11.80;11.30;;;17.50;13.10;;;;;;5015233;28;20776;-70
2022/04/06 10:02:44;;;;;;;11.47;11.07;;;17.50;12.80;;;;;;5015140;28;20896;-70
2022/04/06 10:05:12;;;;;;;11.30;10.90;;;17.40;12.00;;;;;;5014887;28;20434;-71
2022/04/06 10:07:40;;;;;;;11.50;11.10;;;17.40;12.80;;;;;;5014797;28;20414;-71
2022/04/06 10:10:05;;;;;;;10.70;10.30;;;17.30;13.00;;;;;;5014820;28;20411;-70
2022/04/06 10:12:31;;;;;;;10.67;10.17;;;17.40;13.90;;;;;;5015119;28;20460;-71
2022/04/06 10:15:00;;;;;;;11.60;11.20;;;17.40;12.70;;;;;;5014249;28;20196;-70
2022/04/06 10:17:29;;;;;;;11.43;10.93;;;17.50;12.50;;;;;;5009875;28;20449;-71
2022/04/06 10:20:05;;;;;;;11.07;10.67;;;17.40;11.50;;;;;;5009960;28;21043;-70
2022/04/06 10:22:39;;;;;;;11.50;11.10;;;17.40;12.30;;;;;;5010069;28;20430;-70
2022/04/06 10:25:10;;;;;;;11.70;11.30;;;17.50;12.40;;;;;;5010250;28;20461;-70
2022/04/06 10:27:43;;;;;;;11.90;11.50;;;17.50;11.60;;;;;;5010441;28;20454;-70
2022/04/06 10:30:17;;;;;;;11.60;11.20;;;17.40;12.10;;;;;;5010724;28;20422;-70
2022/04/06 10:32:53;;;;;;;11.30;10.90;;;17.50;12.30;;;;;;5010288;28;20437;-70
2022/04/06 10:35:33;;;;;;;11.43;10.93;;;17.50;11.60;;;;;;5010390;28;20431;-70
2022/04/06 10:37:58;;;;;;;11.07;10.67;;;17.40;11.90;;;;;;5010181;28;20422;-69
2022/04/06 10:40:42;;;;;;;11.50;11.10;;;17.40;12.00;;;;;;5010184;28;20415;-68
2022/04/06 10:43:38;;;;;;;13.47;12.63;;;17.50;12.20;;;;;;5010641;28;20413;-69
2022/04/06 10:46:07;;;;;;;13.37;12.67;;;17.50;12.10;;;;;;5011185;28;20988;-73
2022/04/06 10:48:33;;;;;;;12.07;11.57;;;17.60;11.90;;;;;;5009642;28;20431;-73
2022/04/06 10:51:30;;;;;;;11.90;11.40;;;17.70;11.50;;;;;;5010322;28;20969;-73
2022/04/06 10:53:56;;;;;;;11.60;11.20;;;17.80;11.70;;;;;;5009645;28;20210;-72
2022/04/06 10:56:22;;;;;;;11.13;10.73;;;17.80;11.80;;;;;;5009726;28;20423;-74
2022/04/06 10:58:54;;;;;;;11.83;11.33;;;17.90;11.60;;;;;;5010239;28;20227;-72
2022/04/06 11:01:26;;;;;;;11.67;11.17;;;17.90;10.70;;;;;;5009966;28;20434;-73
2022/04/06 11:03:59;;;;;;;11.40;10.90;;;17.90;11.10;;;;;;5009477;28;20542;-73
2022/04/06 11:06:48;;;;;;;11.67;11.27;;;18.00;10.20;;;;;;5008973;28;20795;-72
2022/04/06 11:12:22;;;;;;;11.87;11.47;;;18.00;11.20;;;;;;5010116;28;20480;-70
2022/04/06 11:14:50;;;;;;;11.70;11.20;;;18.10;10.80;;;;;;5009425;28;20431;-71
2022/04/06 11:17:32;;;;;;;12.07;11.57;;;18.10;10.80;;;;;;5008916;28;20415;-72
2022/04/06 11:19:59;;;;;;;11.93;11.43;;;18.30;10.90;;;;;;5008775;28;20462;-71
2022/04/06 11:22:25;;;;;;;12.77;12.27;;;18.40;10.20;;;;;;5009185;28;20426;-72
2022/04/06 11:24:52;;;;;;;11.70;11.30;;;18.50;10.20;;;;;;5010646;28;20461;-70
2022/04/06 11:27:35;;;;;;;11.23;10.83;;;18.40;10.60;;;;;;5007671;28;20627;-70
2022/04/06 11:30:02;;;;;;;12.67;12.13;;;18.40;10.40;;;;;;5008814;28;20431;-70
2022/04/06 11:32:29;;;;;;;12.30;11.70;;;18.20;9.60;;;;;;5012576;28;20427;-69
2022/04/06 11:35:00;;;;;;;12.43;12.03;;;18.20;10.80;;;;;;5012604;28;20431;-69
2022/04/06 11:37:26;;;;;;;12.70;12.20;;;18.20;9.80;;;;;;5012189;28;20419;-69
2022/04/06 11:39:59;;;;;;;12.40;11.90;;;18.00;9.50;;;;;;5013126;28;20991;-69
2022/04/06 11:42:25;;;;;;;12.13;11.73;;;17.90;9.70;;;;;;5013276;28;20411;-69
2022/04/06 11:44:52;;;;;;;12.70;12.10;;;17.80;10.20;;;;;;5013033;28;20801;-69
2022/04/06 11:47:29;;;;;;;11.73;11.33;;;17.70;10.50;;;;;;5012790;28;20422;-70
2022/04/06 11:49:54;;;;;;;11.10;10.70;;;17.60;9.50;;;;;;5013244;28;20457;-69
2022/04/06 11:52:20;;;;;;;11.83;11.43;;;17.60;10.20;;;;;;5011734;28;20932;-69
2022/04/06 11:54:53;;;;;;;12.63;12.13;;;17.70;10.50;;;;;;5013064;28;20212;-68
2022/04/06 11:57:20;;;;;;;11.67;11.27;;;17.70;9.80;;;;;;5012586;28;20469;-68
2022/04/06 11:59:53;;;;;;;13.20;12.60;;;17.70;10.50;;;;;;5012859;28;20519;-69
2022/04/06 12:02:19;;;;;;;12.90;12.20;;;17.80;9.50;;;;;;5012733;28;20429;-69
2022/04/06 12:04:48;;;;;;;12.50;12.00;;;17.70;9.40;;;;;;5012772;28;20431;-69
2022/04/06 12:07:19;;;;;;;13.10;12.50;;;17.90;9.40;;;;;;5012563;28;20681;-69
2022/04/06 12:09:46;;;;;;;11.70;11.20;;;18.00;9.30;;;;;;5012856;28;20429;-69
2022/04/06 12:12:13;;;;;;;13.33;12.83;;;18.00;9.40;;;;;;5012647;28;20419;-68
2022/04/06 12:14:41;;;;;;;12.63;12.13;;;18.00;9.20;;;;;;5011864;28;20959;-70
2022/04/06 12:17:07;;;;;;;12.67;12.17;;;18.20;9.70;;;;;;5012181;28;20422;-70
2022/04/06 12:19:33;;;;;;;12.27;11.87;;;18.40;8.90;;;;;;5012514;28;20872;-69
2022/04/06 12:22:08;;;;;;;12.53;12.13;;;18.60;8.80;;;;;;5012551;28;20423;-70
2022/04/06 12:24:38;;;;;;;12.40;12.00;;;18.50;8.60;;;;;;5012616;28;20508;-70
2022/04/06 12:27:06;;;;;;;12.67;12.20;;;18.60;8.10;;;;;;5011286;28;21028;-70
2022/04/06 12:29:33;;;;;;;12.40;11.90;;;18.70;6.70;;;;;;5011014;28;20513;-70
2022/04/06 12:31:59;;;;;;;12.03;11.63;;;18.50;7.50;;;;;;5011075;28;20433;-67
2022/04/06 12:34:39;;;;;;;12.27;11.87;;;18.70;7.40;;;;;;5012290;28;20427;-70
2022/04/06 12:39:52;;;;;;;12.30;11.90;;;18.90;6.80;;;;;;5012229;28;20485;-69
2022/04/06 12:42:20;;;;;;;12.70;12.20;;;18.90;6.80;;;;;;5012267;28;20447;-69
2022/04/06 12:44:56;;;;;;;12.63;12.13;;;18.90;7.00;;;;;;5010966;28;20447;-69
2022/04/06 12:47:24;;;;;;;12.50;12.10;;;18.80;7.10;;;;;;5011855;28;20417;-69
2022/04/06 12:49:51;;;;;;;12.00;11.50;;;18.40;6.40;;;;;;5012201;28;20778;-69
2022/04/06 12:52:18;;;;;;;12.37;11.97;;;18.50;8.00;;;;;;5011759;28;20415;-68
2022/04/06 12:54:49;;;;;;;13.27;12.67;;;18.20;8.20;;;;;;5011804;28;20510;-70
2022/04/06 12:57:19;;;;;;;12.90;12.40;;;18.10;7.30;;;;;;5011847;28;20831;-70